Elco, Pennsylvania
Current Conditions -  °F | °C
As of 4:05 AM on Wednesday 22 Oct 2014 (Local Time) from KAGC Reporting Station
Overcast Overcast  
Wind Chill: 43°   Ceiling: 900
Heat Index: 48°   Visibility: 10mi
Dew Point: 43°   Wind: 12mph
Humidity: 83%   Direction: 340°NNW
Pressure: 30.02"   Gusts: 22mph
Location:  40.08°N, 79.87°W
Report Text: KAGC 220805Z 34010G19KT 10SM OVC009 09/06 A3002 RMK AO2 T00890061
Loading
Personal Weather Stations






























Interactive Weather Map New forecast layout! Learn more

10-Day Weather Forecast

Advertisements
Track Severe Weather on mobile